Time;durP1;ratioP1;P1;durP2;ratioP2;P2;SDS_P1;SDS_P2;PMS_P1;PMS_P2;Temp;Humidity;BMP_temperature;BMP_pressure;BME280_temperature;BME280_humidity;BME280_pressure;Samples;Min_cycle;Max_cycle;Signal;HPM_P1;HPM_P2
2022/11/16 00:01:25;;;;;;;17.05;13.00;;;13.40;94.40;;;;;;5051063;28;20504;-83
2022/11/16 00:03:52;;;;;;;16.70;13.27;;;13.40;94.40;;;;;;5044616;28;20036;-83
2022/11/16 00:06:19;;;;;;;17.77;13.98;;;13.40;94.40;;;;;;5048258;28;20432;-81
2022/11/16 00:09:21;;;;;;;19.40;14.00;;;13.40;94.40;;;;;;5051413;28;20167;-83
2022/11/16 00:11:36;;;;;;;17.52;12.93;;;13.40;94.40;;;;;;5039181;28;20370;-83
2022/11/16 00:14:03;;;;;;;18.38;13.88;;;13.40;94.40;;;;;;5046855;28;20040;-82
2022/11/16 00:16:28;;;;;;;15.90;13.02;;;13.40;94.40;;;;;;5044881;28;20564;-82
2022/11/16 00:19:00;;;;;;;17.65;13.85;;;13.40;94.40;;;;;;5051932;28;20064;-82
2022/11/16 00:21:26;;;;;;;15.70;12.98;;;13.30;94.40;;;;;;5049177;28;20033;-82
2022/11/16 00:23:52;;;;;;;16.10;12.85;;;13.30;94.30;;;;;;5040106;28;20055;-80
2022/11/16 00:26:19;;;;;;;18.40;13.80;;;13.30;94.30;;;;;;5048354;28;20418;-80
2022/11/16 00:28:44;;;;;;;17.52;14.18;;;13.30;94.30;;;;;;5045076;28;20060;-79
2022/11/16 00:31:10;;;;;;;16.95;13.30;;;13.40;94.30;;;;;;5032393;28;20079;-79
2022/11/16 00:33:37;;;;;;;18.42;14.23;;;13.40;94.30;;;;;;5036222;28;20033;-81
2022/11/16 00:36:05;;;;;;;18.02;14.25;;;13.40;94.30;;;;;;5046779;28;20026;-82
2022/11/16 00:38:31;;;;;;;18.98;13.80;;;13.40;94.30;;;;;;5052943;28;20029;-82
2022/11/16 00:40:57;;;;;;;17.88;14.88;;;13.40;94.30;;;;;;5050543;28;20756;-82
2022/11/16 00:43:23;;;;;;;17.50;13.98;;;13.40;94.30;;;;;;5050095;28;20032;-83
2022/11/16 00:45:48;;;;;;;19.13;13.90;;;13.40;94.30;;;;;;5048562;28;20032;-83
2022/11/16 00:48:14;;;;;;;17.58;14.18;;;13.40;94.30;;;;;;5053769;28;20036;-83
2022/11/16 00:50:40;;;;;;;17.83;13.85;;;13.40;94.30;;;;;;5055858;28;20031;-83
2022/11/16 00:53:06;;;;;;;18.15;13.93;;;13.40;94.30;;;;;;5040034;28;20048;-83
2022/11/16 00:55:33;;;;;;;16.35;13.95;;;13.40;94.30;;;;;;5042260;28;20025;-84
2022/11/16 00:57:59;;;;;;;19.42;14.00;;;13.50;94.30;;;;;;5069388;28;20049;-86
2022/11/16 01:00:25;;;;;;;19.77;15.25;;;13.40;94.20;;;;;;5054978;28;20017;-85
2022/11/16 01:02:54;;;;;;;18.27;14.32;;;13.40;94.30;;;;;;5049073;28;20389;-85
2022/11/16 01:05:21;;;;;;;20.58;14.30;;;13.40;94.30;;;;;;5069621;28;20476;-85
2022/11/16 01:07:47;;;;;;;19.15;14.10;;;13.40;94.30;;;;;;5046222;28;20025;-85
2022/11/16 01:10:16;;;;;;;18.33;14.23;;;13.40;94.30;;;;;;5053996;28;20420;-85
2022/11/16 01:12:42;;;;;;;18.88;15.15;;;13.50;94.30;;;;;;5051146;28;20037;-83
2022/11/16 01:15:08;;;;;;;19.05;14.30;;;13.50;94.30;;;;;;5038770;28;20029;-83
2022/11/16 01:17:37;;;;;;;17.92;13.45;;;13.50;94.30;;;;;;5047084;28;20179;-84
2022/11/16 01:20:06;;;;;;;17.67;13.80;;;13.50;94.40;;;;;;5042929;28;20031;-91
2022/11/16 01:22:34;;;;;;;20.95;16.10;;;13.50;94.40;;;;;;5048059;28;20029;-92
2022/11/16 01:25:00;;;;;;;17.02;13.75;;;13.40;94.40;;;;;;5043392;28;20108;-88
2022/11/16 01:27:26;;;;;;;17.60;13.88;;;13.50;94.40;;;;;;5051512;28;20535;-90
2022/11/16 01:29:52;;;;;;;18.00;14.65;;;13.50;94.40;;;;;;5044496;28;20025;-87
2022/11/16 01:32:18;;;;;;;19.02;14.10;;;13.50;94.30;;;;;;5046515;28;20064;-87
2022/11/16 01:34:44;;;;;;;17.75;14.85;;;13.50;94.40;;;;;;5054336;28;20107;-87
2022/11/16 01:37:10;;;;;;;19.77;15.02;;;13.50;94.40;;;;;;5049274;28;20032;-86
2022/11/16 01:39:35;;;;;;;18.88;14.38;;;13.50;94.40;;;;;;5052578;28;20434;-86
2022/11/16 01:42:01;;;;;;;19.23;14.05;;;13.50;94.30;;;;;;5050339;28;20044;-87
2022/11/16 01:44:33;;;;;;;15.43;13.07;;;13.50;94.30;;;;;;5043481;28;20048;-87
2022/11/16 01:47:00;;;;;;;17.50;14.38;;;13.50;94.30;;;;;;5051665;28;20037;-88
2022/11/16 01:49:31;;;;;;;21.58;15.60;;;13.50;94.40;;;;;;5053684;28;20120;-86
2022/11/16 01:52:06;;;;;;;19.70;15.23;;;13.50;94.40;;;;;;5052936;28;20060;-86
2022/11/16 01:54:35;;;;;;;20.65;15.32;;;13.50;94.50;;;;;;5049627;28;20028;-87
2022/11/16 01:57:04;;;;;;;18.65;14.88;;;13.50;94.50;;;;;;5052711;28;20120;-86
2022/11/16 01:59:29;;;;;;;20.83;15.40;;;13.50;94.60;;;;;;5051853;28;20416;-87
2022/11/16 02:01:57;;;;;;;21.10;15.55;;;13.50;94.70;;;;;;5049573;28;20063;-86
2022/11/16 02:04:23;;;;;;;20.58;15.68;;;13.50;94.70;;;;;;5052406;28;20051;-87
2022/11/16 02:06:54;;;;;;;17.65;14.57;;;13.50;94.80;;;;;;5053633;28;20104;-86
2022/11/16 02:12:49;;;;;;;22.65;16.40;;;13.50;94.80;;;;;;5049421;28;20051;-89
2022/11/16 02:15:24;;;;;;;24.88;16.63;;;13.50;94.80;;;;;;5041626;28;20025;-89
2022/11/16 02:18:06;;;;;;;23.33;17.13;;;13.60;94.90;;;;;;5052651;28;20029;-88
2022/11/16 02:20:41;;;;;;;20.77;15.82;;;13.50;94.90;;;;;;5042863;28;20111;-89
2022/11/16 02:23:14;;;;;;;21.88;17.00;;;13.50;94.90;;;;;;5063050;28;20558;-87
2022/11/16 02:25:48;;;;;;;22.33;16.35;;;13.60;94.90;;;;;;5050638;28;20111;-87
2022/11/16 02:28:35;;;;;;;20.75;15.85;;;13.60;95.00;;;;;;5039508;28;20037;-89
2022/11/16 02:31:04;;;;;;;19.98;15.48;;;13.60;95.00;;;;;;5048314;28;20448;-90
2022/11/16 02:33:37;;;;;;;22.20;17.13;;;13.50;95.00;;;;;;5046479;28;20026;-89
2022/11/16 02:36:05;;;;;;;21.63;17.10;;;13.50;95.00;;;;;;5046960;28;20028;-88
2022/11/16 02:38:35;;;;;;;22.33;16.85;;;13.50;95.10;;;;;;5052194;28;20025;-88
2022/11/16 02:41:04;;;;;;;;;;;13.50;95.10;;;;;;5053052;28;20079;-87
2022/11/16 02:43:34;;;;;;;21.20;16.23;;;13.50;95.20;;;;;;5046477;28;19913;-90
2022/11/16 02:46:06;;;;;;;23.20;15.80;;;13.50;95.20;;;;;;5039358;28;20035;-88
2022/11/16 02:48:40;;;;;;;23.08;16.80;;;13.50;95.30;;;;;;5049381;28;20056;-82
2022/11/16 02:51:06;;;;;;;22.42;17.60;;;13.50;95.30;;;;;;5038675;28;20045;-82
2022/11/16 02:53:39;;;;;;;23.27;17.08;;;13.50;95.30;;;;;;5048933;28;20052;-84
2022/11/16 02:56:05;;;;;;;23.63;17.42;;;13.50;95.30;;;;;;5053163;28;20056;-87
2022/11/16 02:58:31;;;;;;;21.60;16.58;;;13.50;95.40;;;;;;5038306;28;20936;-87
2022/11/16 03:01:06;;;;;;;24.20;17.48;;;13.50;95.40;;;;;;5042455;28;20112;-87
2022/11/16 03:03:42;;;;;;;24.52;18.33;;;13.50;95.40;;;;;;5040971;28;20155;-86
2022/11/16 03:06:15;;;;;;;23.92;17.95;;;13.40;95.40;;;;;;5053167;28;20024;-86
2022/11/16 03:08:51;;;;;;;23.77;17.52;;;13.40;95.40;;;;;;5040710;28;20044;-88
2022/11/16 03:14:13;;;;;;;24.55;17.42;;;13.50;95.50;;;;;;5043221;28;20053;-87
2022/11/16 03:16:52;;;;;;;23.55;18.10;;;13.50;95.50;;;;;;5047939;28;20017;-85
2022/11/16 03:19:47;;;;;;;26.92;17.90;;;13.50;95.50;;;;;;5048768;28;20025;-86
2022/11/16 03:22:20;;;;;;;22.58;16.38;;;13.50;95.50;;;;;;5042443;28;20043;-87
2022/11/16 03:24:46;;;;;;;23.25;17.50;;;13.50;95.50;;;;;;5050146;28;20021;-87
2022/11/16 03:27:12;;;;;;;24.25;18.10;;;13.50;95.50;;;;;;5051726;28;20460;-88
2022/11/16 03:29:45;;;;;;;22.65;17.35;;;13.50;95.60;;;;;;5052675;28;20029;-87
2022/11/16 03:32:34;;;;;;;24.05;17.73;;;13.50;95.60;;;;;;5053126;28;20083;-87
2022/11/16 03:35:06;;;;;;;29.65;22.42;;;13.50;95.60;;;;;;5051260;28;20592;-87
2022/11/16 03:37:34;;;;;;;26.20;18.55;;;13.40;95.70;;;;;;5041932;28;20053;-87
2022/11/16 03:40:01;;;;;;;25.67;18.30;;;13.40;95.80;;;;;;5053294;28;20117;-87
2022/11/16 03:42:28;;;;;;;22.60;18.30;;;13.30;96.10;;;;;;5040477;28;20022;-88
2022/11/16 03:44:54;;;;;;;24.02;17.85;;;13.30;96.00;;;;;;5041471;28;20043;-83
2022/11/16 03:47:20;;;;;;;25.42;18.40;;;13.30;96.00;;;;;;5047432;28;20040;-83
2022/11/16 03:49:46;;;;;;;26.10;19.50;;;13.30;95.90;;;;;;5050979;28;20036;-88
2022/11/16 03:52:15;;;;;;;27.05;19.92;;;13.30;96.00;;;;;;5052575;28;20484;-87
2022/11/16 03:54:41;;;;;;;25.52;19.08;;;13.30;96.00;;;;;;5046211;28;20033;-85
2022/11/16 03:57:06;;;;;;;23.35;18.38;;;13.20;96.20;;;;;;5045256;28;20075;-84
2022/11/16 03:59:32;;;;;;;25.17;18.23;;;13.20;96.30;;;;;;5046773;28;20377;-87
2022/11/16 04:01:58;;;;;;;24.75;18.27;;;13.30;96.30;;;;;;5035178;28;20538;-86
2022/11/16 04:24:15;;;;;;;24.10;17.60;;;13.40;96.20;;;;;;5056053;28;20083;-85
2022/11/16 04:29:28;;;;;;;21.08;17.00;;;13.30;96.20;;;;;;5039566;28;20087;-87
2022/11/16 04:40:08;;;;;;;19.90;15.40;;;13.30;96.30;;;;;;5049463;28;20055;-89
2022/11/16 04:42:33;;;;;;;23.42;18.10;;;13.30;96.30;;;;;;5053497;28;20390;-88
2022/11/16 04:47:43;;;;;;;24.65;17.27;;;13.20;96.60;;;;;;5056323;28;20063;-89
2022/11/16 04:50:10;;;;;;;24.20;17.70;;;13.10;96.70;;;;;;5056266;28;20029;-88
2022/11/16 04:52:35;;;;;;;22.25;16.83;;;13.10;96.70;;;;;;5055585;28;20049;-91
2022/11/16 04:55:01;;;;;;;27.25;19.52;;;13.10;96.80;;;;;;5043086;28;20527;-91
2022/11/16 04:57:27;;;;;;;24.50;17.83;;;13.00;96.80;;;;;;5036660;28;20026;-92
2022/11/16 04:59:52;;;;;;;25.70;18.40;;;13.00;97.20;;;;;;5040298;28;20545;-94
2022/11/16 05:02:18;;;;;;;26.20;18.10;;;12.90;97.20;;;;;;5037462;28;20037;-92
2022/11/16 05:04:44;;;;;;;23.67;17.73;;;12.90;97.10;;;;;;5037359;28;20024;-93
2022/11/16 05:07:11;;;;;;;27.17;20.02;;;12.90;97.20;;;;;;5037347;28;20025;-91
2022/11/16 05:09:45;;;;;;;26.85;20.08;;;12.90;97.30;;;;;;5049648;28;20044;-88
2022/11/16 05:12:21;;;;;;;25.90;16.50;;;12.80;97.40;;;;;;5055698;28;20087;-88
2022/11/16 05:14:47;;;;;;;24.38;16.73;;;12.80;97.40;;;;;;5054701;28;20427;-88
2022/11/16 05:17:13;;;;;;;22.88;16.52;;;12.90;97.30;;;;;;5056056;28;20092;-91
2022/11/16 05:22:23;;;;;;;27.38;18.63;;;12.90;97.20;;;;;;5055956;28;20078;-91
2022/11/16 05:24:49;;;;;;;24.33;16.73;;;12.90;97.30;;;;;;5046299;28;20041;-93
2022/11/16 05:27:17;;;;;;;18.70;14.38;;;12.90;97.40;;;;;;5056583;28;20061;-95
2022/11/16 05:29:43;;;;;;;20.45;15.05;;;12.90;97.30;;;;;;5050810;28;20033;-94
2022/11/16 05:32:11;;;;;;;21.13;16.17;;;12.90;97.30;;;;;;5054378;28;20477;-90
2022/11/16 05:34:37;;;;;;;25.73;17.27;;;12.90;97.30;;;;;;5053771;28;20035;-89
2022/11/16 05:37:03;;;;;;;26.05;19.30;;;12.90;97.30;;;;;;5053684;28;20063;-87
2022/11/16 05:39:29;;;;;;;22.70;16.92;;;12.90;97.40;;;;;;5049912;28;20053;-87
2022/11/16 05:41:55;;;;;;;20.38;14.85;;;12.80;97.60;;;;;;5055031;28;20404;-90
2022/11/16 05:44:21;;;;;;;28.75;18.98;;;12.80;97.40;;;;;;5039826;28;20032;-90
2022/11/16 05:46:47;;;;;;;20.45;15.95;;;12.80;97.40;;;;;;5053540;28;20028;-91
2022/11/16 05:49:14;;;;;;;18.05;14.18;;;12.80;97.40;;;;;;5054971;28;20033;-88
2022/11/16 05:51:41;;;;;;;24.05;17.15;;;12.80;97.40;;;;;;5055095;28;20055;-88
2022/11/16 05:54:07;;;;;;;25.77;17.80;;;12.80;97.30;;;;;;5043321;28;20439;-91
2022/11/16 05:56:34;;;;;;;20.80;16.13;;;12.80;97.50;;;;;;5035961;28;20025;-93
2022/11/16 05:59:00;;;;;;;27.77;20.40;;;12.80;97.40;;;;;;5057486;28;20144;-88
2022/11/16 06:01:25;;;;;;;21.95;16.38;;;12.70;97.60;;;;;;5048239;28;20060;-88
2022/11/16 06:03:52;;;;;;;21.98;16.35;;;12.70;97.80;;;;;;5054268;28;20041;-88
2022/11/16 06:06:18;;;;;;;24.98;17.48;;;12.70;97.70;;;;;;5053369;28;20044;-88
2022/11/16 06:08:44;;;;;;;19.27;14.98;;;12.70;97.70;;;;;;5049118;28;20144;-86
2022/11/16 06:11:10;;;;;;;26.70;19.20;;;12.80;97.70;;;;;;5046136;28;20056;-86
2022/11/16 06:13:36;;;;;;;22.83;16.80;;;12.80;97.80;;;;;;5053300;28;20021;-86
2022/11/16 06:16:03;;;;;;;17.67;14.48;;;12.80;97.70;;;;;;5050375;28;20465;-87
2022/11/16 06:18:29;;;;;;;22.10;16.58;;;12.80;97.60;;;;;;5053167;28;20036;-87
2022/11/16 06:20:55;;;;;;;29.08;19.90;;;12.80;97.70;;;;;;5046760;28;20036;-80
2022/11/16 06:23:21;;;;;;;26.77;18.92;;;12.80;97.60;;;;;;5044343;28;20028;-76
2022/11/16 06:25:53;;;;;;;24.20;17.10;;;12.80;97.70;;;;;;5052362;28;20036;-75
2022/11/16 06:28:19;;;;;;;28.65;18.52;;;12.70;97.80;;;;;;5049341;28;20358;-76
2022/11/16 06:30:47;;;;;;;21.40;16.42;;;12.80;97.80;;;;;;5048099;28;20044;-76
2022/11/16 06:33:13;;;;;;;21.92;17.52;;;12.80;97.80;;;;;;5053275;28;20104;-76
2022/11/16 06:35:39;;;;;;;25.63;19.02;;;12.90;97.70;;;;;;5050314;28;20017;-76
2022/11/16 06:38:04;;;;;;;23.27;18.17;;;12.80;97.70;;;;;;5048147;28;20062;-81
2022/11/16 06:40:31;;;;;;;28.23;19.90;;;12.90;97.70;;;;;;5056729;28;20078;-81
2022/11/16 06:42:57;;;;;;;22.23;17.25;;;12.80;97.70;;;;;;5053176;28;20021;-81
2022/11/16 06:45:23;;;;;;;24.98;18.08;;;12.80;97.90;;;;;;5050385;28;20090;-81
2022/11/16 06:47:48;;;;;;;25.73;18.73;;;12.90;97.70;;;;;;5038443;28;20114;-81
2022/11/16 06:50:18;;;;;;;26.60;18.05;;;12.90;97.70;;;;;;5053760;28;20039;-82
2022/11/16 06:52:47;;;;;;;21.45;16.90;;;12.90;97.70;;;;;;5051566;28;20041;-82
2022/11/16 06:55:13;;;;;;;23.92;17.10;;;12.90;97.70;;;;;;5045918;28;20025;-84
2022/11/16 06:57:39;;;;;;;24.55;17.48;;;12.90;97.50;;;;;;5036682;28;20330;-88
2022/11/16 07:00:06;;;;;;;24.98;18.02;;;12.90;97.50;;;;;;5050338;28;20029;-78
2022/11/16 07:02:36;;;;;;;24.63;18.02;;;13.00;97.50;;;;;;5048281;28;20029;-77
2022/11/16 07:05:02;;;;;;;31.40;20.58;;;13.00;97.40;;;;;;5047863;28;20448;-76
2022/11/16 07:07:28;;;;;;;22.95;17.15;;;12.90;97.40;;;;;;5050468;28;20025;-79
2022/11/16 07:09:53;;;;;;;24.67;17.60;;;13.00;97.30;;;;;;5051814;28;20395;-79
2022/11/16 07:12:19;;;;;;;27.02;18.95;;;13.00;97.30;;;;;;5053846;28;20082;-79
2022/11/16 07:14:45;;;;;;;23.83;17.23;;;13.00;97.40;;;;;;5053361;28;20365;-79
2022/11/16 07:17:10;;;;;;;25.25;17.30;;;13.00;97.30;;;;;;5053010;28;20033;-80
2022/11/16 07:19:36;;;;;;;22.17;15.15;;;13.10;97.30;;;;;;5051904;28;20064;-79
2022/11/16 07:22:03;;;;;;;21.40;16.65;;;13.00;97.30;;;;;;5053448;28;20506;-78
2022/11/16 07:24:28;;;;;;;19.48;14.93;;;13.00;97.30;;;;;;5053444;28;20040;-78
2022/11/16 07:26:54;;;;;;;21.73;16.05;;;12.90;97.40;;;;;;5052896;28;20385;-78
2022/11/16 07:29:21;;;;;;;20.02;15.73;;;12.90;97.50;;;;;;5052756;28;20085;-82
2022/11/16 07:31:47;;;;;;;18.75;14.50;;;13.00;97.50;;;;;;5050320;28;20119;-83
2022/11/16 07:34:12;;;;;;;20.50;15.65;;;13.00;97.40;;;;;;5035481;28;20488;-85
2022/11/16 07:36:39;;;;;;;23.70;16.45;;;13.10;97.40;;;;;;5035381;28;20048;-77
2022/11/16 07:39:05;;;;;;;20.80;14.75;;;13.10;97.30;;;;;;5051084;28;20040;-77
2022/11/16 07:41:31;;;;;;;22.75;15.02;;;13.10;97.30;;;;;;5052540;28;20044;-86
2022/11/16 07:43:59;;;;;;;17.73;14.70;;;13.10;97.30;;;;;;5063474;28;20029;-77
2022/11/16 07:46:25;;;;;;;25.50;17.02;;;13.10;97.20;;;;;;5059856;28;20035;-77
2022/11/16 07:48:51;;;;;;;23.20;18.15;;;13.10;97.20;;;;;;5059588;28;20025;-76
2022/11/16 07:51:18;;;;;;;20.40;15.73;;;13.10;97.30;;;;;;5058569;28;20598;-77
2022/11/16 07:53:45;;;;;;;28.52;20.23;;;13.10;97.30;;;;;;5061043;28;20030;-77
2022/11/16 07:56:11;;;;;;;23.35;15.43;;;13.10;97.20;;;;;;5059634;28;20104;-84
2022/11/16 07:58:37;;;;;;;25.70;17.45;;;13.10;97.30;;;;;;5063856;28;20473;-84
2022/11/16 08:01:12;;;;;;;21.35;15.68;;;13.20;97.30;;;;;;5058725;28;20029;-84
2022/11/16 08:03:39;;;;;;;20.75;15.52;;;13.20;97.20;;;;;;5058153;28;20024;-85
2022/11/16 08:06:16;;;;;;;21.38;15.77;;;13.20;97.20;;;;;;5060408;28;20108;-77
2022/11/16 08:08:42;;;;;;;19.48;14.98;;;13.30;97.20;;;;;;5059191;28;20500;-78
2022/11/16 08:11:10;;;;;;;22.45;16.17;;;13.30;97.20;;;;;;5058523;28;20025;-76
2022/11/16 08:13:37;;;;;;;22.27;16.65;;;13.30;97.20;;;;;;5067088;28;20034;-84
2022/11/16 08:16:09;;;;;;;22.00;16.77;;;13.40;97.20;;;;;;5068899;28;20507;-84
2022/11/16 08:18:36;;;;;;;20.02;15.70;;;13.40;97.10;;;;;;5065814;28;20028;-76
2022/11/16 08:21:04;;;;;;;20.08;16.00;;;13.40;97.10;;;;;;5058961;28;20029;-84
2022/11/16 08:23:30;;;;;;;17.73;14.70;;;13.40;97.10;;;;;;5059381;28;20040;-75
2022/11/16 08:26:13;;;;;;;22.13;16.58;;;13.50;97.20;;;;;;5052841;28;20028;-76
2022/11/16 08:28:40;;;;;;;20.30;15.15;;;13.50;97.20;;;;;;5052850;28;20454;-83
2022/11/16 08:31:14;;;;;;;19.80;15.35;;;13.50;97.20;;;;;;5050855;28;20481;-83
2022/11/16 08:33:40;;;;;;;28.60;19.52;;;13.50;97.20;;;;;;5056302;28;20033;-81
2022/11/16 08:36:09;;;;;;;21.27;15.77;;;13.50;97.10;;;;;;5051052;28;20029;-86
2022/11/16 08:38:34;;;;;;;21.05;15.32;;;13.50;97.10;;;;;;5055998;28;20532;-87
2022/11/16 08:41:00;;;;;;;18.80;15.18;;;13.60;97.10;;;;;;5052686;28;20032;-86
2022/11/16 08:43:28;;;;;;;22.08;16.83;;;13.60;97.20;;;;;;5055921;28;20044;-86
2022/11/16 08:45:54;;;;;;;19.40;15.05;;;13.70;97.20;;;;;;5058917;28;20028;-87
2022/11/16 08:48:20;;;;;;;20.42;15.50;;;13.70;97.00;;;;;;5060442;28;20047;-86
2022/11/16 08:50:46;;;;;;;20.10;15.63;;;13.70;97.00;;;;;;5058970;28;20145;-85
2022/11/16 08:53:14;;;;;;;18.88;15.50;;;13.70;97.00;;;;;;5057230;28;20104;-86
2022/11/16 08:55:41;;;;;;;22.10;16.05;;;13.70;97.00;;;;;;5056990;28;20461;-86
2022/11/16 08:58:07;;;;;;;23.08;16.80;;;13.60;97.00;;;;;;5036654;28;20060;-87
2022/11/16 09:00:33;;;;;;;18.75;14.52;;;13.60;97.00;;;;;;5059366;28;20029;-83
2022/11/16 09:03:00;;;;;;;22.08;16.15;;;13.60;97.00;;;;;;5061180;28;20104;-75
2022/11/16 09:05:26;;;;;;;18.83;14.95;;;13.60;97.10;;;;;;5061370;28;20164;-75
2022/11/16 09:07:52;;;;;;;26.50;15.98;;;13.60;97.10;;;;;;5060718;28;20484;-84
2022/11/16 09:10:21;;;;;;;18.27;14.55;;;13.70;97.20;;;;;;5064308;28;20039;-83
2022/11/16 09:12:48;;;;;;;19.27;13.95;;;13.70;97.10;;;;;;5059618;28;20033;-75
2022/11/16 09:15:20;;;;;;;18.75;14.55;;;13.70;97.00;;;;;;5052634;28;20395;-75
2022/11/16 09:17:46;;;;;;;18.33;13.98;;;13.70;97.00;;;;;;5059275;28;20027;-76
2022/11/16 09:20:11;;;;;;;19.15;13.70;;;13.70;97.10;;;;;;5052336;28;20034;-76
2022/11/16 09:22:37;;;;;;;17.10;13.40;;;13.80;97.20;;;;;;5057674;28;20495;-76
2022/11/16 09:25:03;;;;;;;19.73;14.55;;;13.80;97.00;;;;;;5057558;28;20032;-76
2022/11/16 09:27:29;;;;;;;18.83;14.52;;;13.90;97.00;;;;;;5058003;28;20036;-73
2022/11/16 09:29:55;;;;;;;16.63;12.98;;;13.90;97.00;;;;;;5050576;28;20477;-74
2022/11/16 09:32:20;;;;;;;16.17;12.60;;;14.00;96.80;;;;;;5052426;28;20126;-75
2022/11/16 09:34:46;;;;;;;17.52;13.85;;;13.90;96.80;;;;;;5055705;28;20493;-76
2022/11/16 09:37:12;;;;;;;17.10;13.50;;;14.00;96.90;;;;;;5058853;28;20032;-74
2022/11/16 09:39:37;;;;;;;18.02;14.23;;;14.00;96.80;;;;;;5063162;28;20388;-75
2022/11/16 09:42:24;;;;;;;17.77;14.02;;;14.00;96.70;;;;;;5058503;28;20038;-76
2022/11/16 09:45:19;;;;;;;22.05;14.57;;;14.00;97.00;;;;;;5062548;28;20054;-77
2022/11/16 09:47:48;;;;;;;19.75;14.27;;;13.90;96.70;;;;;;5061210;28;20040;-83
2022/11/16 09:50:37;;;;;;;19.17;13.13;;;13.90;96.80;;;;;;5061657;28;20131;-76
2022/11/16 09:53:28;;;;;;;19.65;13.90;;;13.90;96.80;;;;;;5054763;28;20052;-81
2022/11/16 09:56:13;;;;;;;22.08;13.43;;;13.90;97.00;;;;;;5058208;28;20400;-76
2022/11/16 09:58:59;;;;;;;21.20;15.00;;;13.90;97.20;;;;;;5059139;28;20464;-76
2022/11/16 10:01:43;;;;;;;16.00;12.35;;;14.10;98.20;;;;;;5055292;28;20498;-83
2022/11/16 10:04:42;;;;;;;19.38;14.10;;;14.30;97.40;;;;;;5058381;28;20497;-81
2022/11/16 10:07:23;;;;;;;15.57;12.38;;;14.30;97.00;;;;;;5057978;28;20044;-82
2022/11/16 10:09:49;;;;;;;17.33;12.73;;;14.30;97.00;;;;;;5057399;28;20044;-75
2022/11/16 10:12:21;;;;;;;15.35;12.93;;;14.30;96.90;;;;;;5059463;28;20036;-75
2022/11/16 10:15:13;;;;;;;17.00;12.85;;;14.30;97.00;;;;;;5059398;28;20592;-75
2022/11/16 10:18:07;;;;;;;13.38;11.27;;;14.40;96.90;;;;;;5057200;28;20048;-75
2022/11/16 10:20:44;;;;;;;12.25;10.07;;;14.40;96.80;;;;;;5061539;28;20024;-74
2022/11/16 10:23:36;;;;;;;14.45;10.98;;;14.40;96.80;;;;;;5056814;28;20079;-74
2022/11/16 10:26:34;;;;;;;14.55;11.82;;;14.40;96.80;;;;;;5057157;28;20054;-75
2022/11/16 10:29:04;;;;;;;12.77;9.90;;;14.40;96.70;;;;;;5060355;28;20090;-75
2022/11/16 10:31:50;;;;;;;11.63;9.57;;;14.40;96.60;;;;;;5061746;28;20076;-76
2022/11/16 10:34:21;;;;;;;11.55;10.23;;;14.40;96.70;;;;;;5055512;28;20009;-83
2022/11/16 10:36:47;;;;;;;11.13;9.32;;;14.40;96.60;;;;;;5055029;28;20025;-75
2022/11/16 10:39:15;;;;;;;12.38;10.95;;;14.40;96.50;;;;;;5060632;28;20023;-76
2022/11/16 10:41:44;;;;;;;10.90;9.15;;;14.40;96.60;;;;;;5054409;28;20119;-76
2022/11/16 10:44:24;;;;;;;12.50;10.15;;;14.40;96.50;;;;;;5063994;28;20028;-77
2022/11/16 10:47:11;;;;;;;12.60;9.40;;;14.40;96.60;;;;;;5040611;28;20030;-75
2022/11/16 10:49:57;;;;;;;12.27;9.75;;;14.50;96.60;;;;;;5048633;28;20338;-81
2022/11/16 10:52:24;;;;;;;15.32;11.43;;;14.50;96.60;;;;;;5037722;28;20065;-79
2022/11/16 10:54:50;;;;;;;14.55;10.75;;;14.50;96.60;;;;;;5041105;28;20025;-80
2022/11/16 10:57:16;;;;;;;14.63;10.88;;;14.50;96.50;;;;;;5044034;28;20029;-78
2022/11/16 10:59:46;;;;;;;14.93;10.43;;;14.40;96.60;;;;;;5044926;28;20523;-78
2022/11/16 11:02:21;;;;;;;;;;;14.40;96.60;;;;;;5037356;28;20021;-78
2022/11/16 11:05:20;;;;;;;11.40;9.73;;;14.50;96.70;;;;;;5044146;28;19916;-79
2022/11/16 11:07:50;;;;;;;10.80;9.45;;;14.60;96.60;;;;;;5049782;28;20031;-78
2022/11/16 11:10:37;;;;;;;12.90;10.52;;;14.60;96.60;;;;;;5044159;28;20112;-78
2022/11/16 11:13:18;;;;;;;14.32;11.45;;;14.60;96.60;;;;;;5049415;28;20048;-79
2022/11/16 11:15:44;;;;;;;12.80;10.38;;;14.60;96.60;;;;;;5043756;28;20044;-78
2022/11/16 11:18:24;;;;;;;14.98;11.25;;;14.60;96.60;;;;;;5056087;28;20021;-77
2022/11/16 11:21:11;;;;;;;13.90;10.02;;;14.60;96.70;;;;;;5048688;28;20026;-78
2022/11/16 11:23:50;;;;;;;10.05;8.95;;;14.70;96.70;;;;;;5048821;28;20159;-77
2022/11/16 11:26:37;;;;;;;12.27;9.40;;;14.80;96.70;;;;;;5045836;28;20112;-86
2022/11/16 11:29:18;;;;;;;13.18;9.35;;;14.90;96.70;;;;;;5041613;28;20017;-86
2022/11/16 11:31:48;;;;;;;10.98;9.40;;;14.90;96.70;;;;;;5054934;28;20033;-86
2022/11/16 11:34:40;;;;;;;12.05;9.05;;;14.90;96.40;;;;;;5055173;28;20031;-85
2022/11/16 11:37:15;;;;;;;10.60;8.98;;;15.00;96.30;;;;;;5049965;28;20508;-86
2022/11/16 11:39:41;;;;;;;10.25;8.57;;;15.00;96.20;;;;;;5054541;28;20053;-85
2022/11/16 11:42:12;;;;;;;10.00;7.90;;;14.90;96.10;;;;;;5054222;28;20033;-85
2022/11/16 11:44:51;;;;;;;9.32;8.35;;;14.90;96.20;;;;;;5054666;28;20021;-84
2022/11/16 11:47:17;;;;;;;14.27;9.68;;;15.00;96.20;;;;;;5057375;28;20032;-84
2022/11/16 11:49:51;;;;;;;10.20;9.10;;;14.90;96.20;;;;;;5060953;28;20048;-84
2022/11/16 11:52:37;;;;;;;11.02;9.07;;;15.00;96.30;;;;;;5060226;28;20070;-85
2022/11/16 11:55:06;;;;;;;10.48;8.32;;;15.00;96.30;;;;;;5061969;28;20037;-85
2022/11/16 11:57:37;;;;;;;12.13;8.23;;;15.00;96.10;;;;;;5053269;28;20033;-85
2022/11/16 12:00:05;;;;;;;8.52;7.20;;;15.00;96.00;;;;;;5053196;28;20060;-86
2022/11/16 12:02:52;;;;;;;8.27;7.43;;;15.10;96.10;;;;;;5034258;28;20044;-86
2022/11/16 12:05:53;;;;;;;8.40;7.20;;;15.10;96.10;;;;;;5033817;28;20375;-86
2022/11/16 12:08:22;;;;;;;9.45;7.70;;;15.10;96.00;;;;;;4978489;28;20034;-85
2022/11/16 12:10:50;;;;;;;10.25;8.68;;;15.10;95.90;;;;;;5034146;28;20037;-86
2022/11/16 12:13:37;;;;;;;9.32;7.50;;;15.10;95.70;;;;;;5051075;28;20024;-86
2022/11/16 12:16:13;;;;;;;7.80;7.00;;;15.00;95.70;;;;;;5053592;28;20021;-87
2022/11/16 12:18:48;;;;;;;6.53;5.82;;;15.00;95.80;;;;;;5062196;28;20109;-86
2022/11/16 12:21:21;;;;;;;7.90;6.45;;;15.10;95.80;;;;;;5059807;28;20033;-85
2022/11/16 12:24:26;;;;;;;8.20;6.35;;;15.20;95.80;;;;;;5059711;28;20041;-85
2022/11/16 12:26:52;;;;;;;10.35;7.22;;;15.20;95.70;;;;;;5059711;28;20020;-85
2022/11/16 12:29:25;;;;;;;8.50;6.25;;;15.30;95.70;;;;;;5064101;28;20547;-79
2022/11/16 12:32:37;;;;;;;7.43;6.00;;;15.30;95.50;;;;;;5059898;28;20027;-78
2022/11/16 12:35:10;;;;;;;7.82;6.20;;;15.40;95.50;;;;;;5043221;28;20056;-86
2022/11/16 12:37:40;;;;;;;6.53;5.72;;;15.40;95.30;;;;;;5077328;28;20122;-84
2022/11/16 12:40:18;;;;;;;;;;;15.50;95.30;;;;;;5081119;28;20025;-84
2022/11/16 12:42:57;;;;;;;7.55;6.32;;;15.50;95.30;;;;;;5082484;28;19954;-77
2022/11/16 12:45:38;;;;;;;7.97;6.13;;;15.60;95.30;;;;;;5075189;28;20108;-77
2022/11/16 12:48:19;;;;;;;6.55;5.80;;;15.60;95.10;;;;;;5076931;28;20033;-84
2022/11/16 12:50:47;;;;;;;8.18;6.60;;;15.70;95.10;;;;;;5080371;28;20074;-79
2022/11/16 12:53:19;;;;;;;7.30;6.43;;;15.70;95.00;;;;;;5074161;28;20037;-79
2022/11/16 12:56:02;;;;;;;7.40;6.00;;;15.70;95.00;;;;;;5062127;28;20033;-78
2022/11/16 12:58:43;;;;;;;7.80;6.10;;;15.80;95.00;;;;;;5062636;28;20032;-78
2022/11/16 13:01:21;;;;;;;6.82;6.13;;;15.80;94.90;;;;;;5062701;28;20025;-78
2022/11/16 13:03:50;;;;;;;7.57;6.53;;;15.80;94.80;;;;;;5067139;28;20033;-78
2022/11/16 13:06:21;;;;;;;8.03;6.23;;;15.90;94.80;;;;;;5065035;28;20088;-78
2022/11/16 13:09:13;;;;;;;8.40;6.10;;;15.90;94.70;;;;;;5061367;28;20271;-77
2022/11/16 13:11:56;;;;;;;6.78;6.07;;;15.90;94.70;;;;;;5056919;28;20797;-82
2022/11/16 13:14:41;;;;;;;8.77;6.65;;;15.90;94.70;;;;;;5062415;28;20048;-86
2022/11/16 13:17:09;;;;;;;8.40;6.63;;;15.90;94.60;;;;;;5063486;28;20544;-84
2022/11/16 13:19:40;;;;;;;7.22;6.20;;;16.00;94.70;;;;;;5066574;28;20025;-86
2022/11/16 13:22:18;;;;;;;7.63;6.22;;;15.90;94.60;;;;;;5060790;28;20434;-85
2022/11/16 13:24:50;;;;;;;13.40;8.40;;;15.90;94.60;;;;;;5062657;28;20025;-85
2022/11/16 13:27:27;;;;;;;14.68;8.70;;;15.90;94.50;;;;;;5062484;28;20029;-85
2022/11/16 13:30:18;;;;;;;10.27;7.20;;;15.90;94.50;;;;;;5059530;28;20028;-78
2022/11/16 13:33:17;;;;;;;8.63;6.65;;;15.90;94.60;;;;;;5044324;28;20590;-85